Time;durP1;ratioP1;P1;durP2;ratioP2;P2;SDS_P1;SDS_P2;PMS_P1;PMS_P2;Temp;Humidity;BMP_temperature;BMP_pressure;BME280_temperature;BME280_humidity;BME280_pressure;Samples;Min_cycle;Max_cycle;Signal;HPM_P1;HPM_P2
2024/01/09 00:02:28;;;;;;;0.10;0.10;;;;;;;-4.80;100.00;100490.50;5055234;28;20296;-52
2024/01/09 00:05:17;;;;;;;0.10;0.10;;;;;;;-4.92;100.00;100493.75;5055108;28;20195;-53
2024/01/09 00:08:04;;;;;;;0.10;0.10;;;;;;;-5.07;100.00;100501.16;5034939;28;20221;-52
2024/01/09 00:10:51;;;;;;;0.10;0.10;;;;;;;-5.09;100.00;100500.25;5035296;28;20267;-51
2024/01/09 00:13:38;;;;;;;0.10;0.10;;;;;;;-5.23;100.00;100494.78;5035127;28;20678;-52
2024/01/09 00:16:25;;;;;;;0.10;0.10;;;;;;;-4.90;100.00;100492.03;5043720;28;20204;-52
2024/01/09 00:19:12;;;;;;;0.00;0.00;;;;;;;-5.00;100.00;100497.88;5054898;28;20250;-52
2024/01/09 00:22:02;;;;;;;0.10;0.10;;;;;;;-5.05;100.00;100511.53;5054647;28;20228;-53
2024/01/09 00:24:49;;;;;;;0.10;0.10;;;;;;;-5.18;100.00;100506.09;5053535;28;20312;-53
2024/01/09 00:27:36;;;;;;;0.10;0.10;;;;;;;-5.11;100.00;100504.53;5054616;28;20208;-52
2024/01/09 00:30:23;;;;;;;0.10;0.10;;;;;;;-5.26;100.00;100499.91;5054696;28;20188;-53
2024/01/09 00:33:10;;;;;;;0.10;0.10;;;;;;;-5.14;100.00;100512.19;5054584;28;20263;-53
2024/01/09 00:35:57;;;;;;;0.07;0.07;;;;;;;-5.15;100.00;100507.88;5054548;28;20199;-52
2024/01/09 00:38:45;;;;;;;0.10;0.10;;;;;;;-5.19;100.00;100508.66;5053323;28;20306;-52
2024/01/09 00:41:32;;;;;;;0.10;0.10;;;;;;;-4.97;100.00;100507.38;5054388;28;20469;-52
2024/01/09 00:44:18;;;;;;;0.10;0.10;;;;;;;-4.75;100.00;100504.38;5054477;28;20705;-52
2024/01/09 00:47:05;;;;;;;0.10;0.10;;;;;;;-5.06;100.00;100508.06;5054066;28;20204;-52
2024/01/09 00:49:52;;;;;;;0.10;0.10;;;;;;;-4.85;100.00;100499.00;5054340;28;20208;-52
2024/01/09 00:52:39;;;;;;;0.10;0.10;;;;;;;-5.22;100.00;100506.88;5054282;28;20203;-53
2024/01/09 00:55:27;;;;;;;0.10;0.10;;;;;;;-5.10;100.00;100508.84;5052866;28;20203;-52
2024/01/09 00:58:14;;;;;;;0.10;0.10;;;;;;;-5.08;100.00;100508.88;5054212;28;20200;-52
2024/01/09 01:01:01;;;;;;;0.10;0.10;;;;;;;-5.19;100.00;100504.38;5054237;28;20207;-52
2024/01/09 01:03:48;;;;;;;0.10;0.10;;;;;;;-5.22;100.00;100504.28;5054282;28;20208;-52
2024/01/09 01:06:41;;;;;;;0.10;0.10;;;;;;;-5.11;100.00;100506.25;5053869;28;20201;-52
2024/01/09 01:09:27;;;;;;;0.10;0.10;;;;;;;-5.18;100.00;100503.53;5052485;28;20279;-52
2024/01/09 01:12:16;;;;;;;0.10;0.10;;;;;;;-5.16;100.00;100500.97;5053926;28;20191;-52
2024/01/09 01:15:03;;;;;;;0.10;0.10;;;;;;;-5.26;100.00;100505.06;5053842;28;20243;-52
2024/01/09 01:17:49;;;;;;;0.10;0.10;;;;;;;-5.21;100.00;100497.44;5053803;28;20200;-52
2024/01/09 01:20:36;;;;;;;0.10;0.10;;;;;;;-5.27;100.00;100497.28;5053591;28;20188;-52
2024/01/09 01:23:23;;;;;;;0.10;0.10;;;;;;;-5.38;100.00;100496.19;5052412;28;20282;-52
2024/01/09 01:26:10;;;;;;;0.10;0.10;;;;;;;-5.14;100.00;100506.16;5052525;28;20739;-52
2024/01/09 01:28:59;;;;;;;0.10;0.10;;;;;;;-5.14;100.00;100513.91;5053457;28;20235;-52
2024/01/09 01:31:45;;;;;;;0.10;0.10;;;;;;;-5.16;100.00;100508.72;5053499;28;20196;-52
2024/01/09 01:34:32;;;;;;;0.10;0.10;;;;;;;-5.12;100.00;100514.81;5053454;28;20212;-53
2024/01/09 01:37:19;;;;;;;0.10;0.10;;;;;;;-5.13;100.00;100518.22;5053494;28;20204;-52
2024/01/09 01:40:07;;;;;;;0.00;0.00;;;;;;;-5.27;100.00;100517.94;5052136;28;20195;-52
2024/01/09 01:42:57;;;;;;;0.10;0.10;;;;;;;-5.22;100.00;100508.56;5053416;28;20193;-51
2024/01/09 01:45:45;;;;;;;0.10;0.10;;;;;;;-5.36;100.00;100510.00;5053330;28;20191;-53
2024/01/09 01:48:34;;;;;;;0.10;0.10;;;;;;;-5.44;100.00;100519.28;5053125;28;20223;-53
2024/01/09 01:51:21;;;;;;;0.10;0.10;;;;;;;-5.41;100.00;100511.59;5052874;28;20196;-52
2024/01/09 01:54:08;;;;;;;0.10;0.10;;;;;;;-5.20;100.00;100515.53;5051947;28;20191;-53
2024/01/09 01:56:56;;;;;;;0.00;0.00;;;;;;;-5.23;100.00;100515.44;5053021;28;20195;-52
2024/01/09 01:59:46;;;;;;;0.10;0.10;;;;;;;-5.42;100.00;100515.03;5053165;28;20586;-53
2024/01/09 02:02:35;;;;;;;0.10;0.10;;;;;;;-5.32;100.00;100511.81;5052919;28;20195;-52
2024/01/09 02:05:24;;;;;;;0.10;0.10;;;;;;;-5.19;100.00;100512.13;5053061;28;20239;-52
2024/01/09 02:08:13;;;;;;;0.00;0.00;;;;;;;-5.28;100.00;100516.22;5032156;28;20192;-52
2024/01/09 02:11:00;;;;;;;0.10;0.10;;;;;;;-5.23;100.00;100512.00;5032924;28;20188;-53
2024/01/09 02:13:47;;;;;;;0.10;0.10;;;;;;;-5.52;100.00;100509.66;5033053;28;20224;-52
2024/01/09 02:16:34;;;;;;;0.10;0.10;;;;;;;-5.50;100.00;100515.75;5041325;28;20203;-52
2024/01/09 02:19:23;;;;;;;0.10;0.10;;;;;;;-5.52;100.00;100513.94;5052662;28;20192;-52
2024/01/09 02:22:09;;;;;;;0.10;0.10;;;;;;;-5.49;100.00;100524.38;5052659;28;20236;-52
2024/01/09 02:24:56;;;;;;;0.10;0.10;;;;;;;-5.36;100.00;100520.34;5051456;28;20192;-53
2024/01/09 02:27:51;;;;;;;0.10;0.10;;;;;;;-5.29;100.00;100517.94;5052256;28;20200;-52
2024/01/09 02:30:40;;;;;;;0.10;0.10;;;;;;;-5.58;100.00;100519.84;5052881;28;20200;-52
2024/01/09 02:33:29;;;;;;;0.10;0.10;;;;;;;-5.86;100.00;100512.31;5052744;28;20195;-52
2024/01/09 02:36:16;;;;;;;0.10;0.10;;;;;;;-5.53;100.00;100518.25;5052672;28;20323;-52
2024/01/09 02:39:02;;;;;;;0.00;0.00;;;;;;;-5.55;100.00;100511.31;5051552;28;20196;-52
2024/01/09 02:41:50;;;;;;;0.10;0.10;;;;;;;-5.57;100.00;100506.13;5052627;28;20235;-52
2024/01/09 02:44:37;;;;;;;0.10;0.10;;;;;;;-5.37;100.00;100508.25;5052595;28;20262;-52
2024/01/09 02:47:27;;;;;;;0.10;0.10;;;;;;;-5.50;100.00;100507.09;5052581;28;20191;-52
2024/01/09 02:50:14;;;;;;;0.10;0.10;;;;;;;-5.64;100.00;100504.22;5051978;28;20698;-52
2024/01/09 02:53:01;;;;;;;0.10;0.10;;;;;;;-5.51;100.00;100502.78;5052596;28;20208;-52
2024/01/09 02:55:48;;;;;;;0.10;0.10;;;;;;;-5.61;100.00;100503.41;5052457;28;20200;-52
2024/01/09 02:58:35;;;;;;;0.10;0.10;;;;;;;-5.67;100.00;100503.28;5052519;28;20203;-52
2024/01/09 03:01:24;;;;;;;0.00;0.00;;;;;;;-5.33;100.00;100507.47;5052494;28;20192;-52
2024/01/09 03:04:13;;;;;;;0.10;0.10;;;;;;;-5.43;100.00;100509.00;5054066;28;20267;-52
2024/01/09 03:07:00;;;;;;;0.10;0.10;;;;;;;-5.41;100.00;100501.28;5056310;28;20262;-52
2024/01/09 03:09:47;;;;;;;0.10;0.10;;;;;;;-5.19;99.69;100511.25;5054658;28;20219;-52
2024/01/09 03:12:34;;;;;;;0.10;0.10;;;;;;;-5.39;98.90;100507.38;5056277;28;20774;-53
2024/01/09 03:15:20;;;;;;;0.10;0.10;;;;;;;-5.51;99.32;100508.81;5056245;28;20327;-52
2024/01/09 03:18:07;;;;;;;0.10;0.10;;;;;;;-5.42;99.10;100515.91;5056106;28;20192;-52
2024/01/09 03:20:56;;;;;;;0.10;0.10;;;;;;;-5.35;99.02;100511.75;5055859;28;20223;-52
2024/01/09 03:23:42;;;;;;;0.10;0.10;;;;;;;-5.03;98.47;100502.09;5054878;28;20192;-52
2024/01/09 03:26:29;;;;;;;0.00;0.00;;;;;;;-5.33;98.73;100503.19;5055937;28;20289;-52
2024/01/09 03:29:17;;;;;;;0.10;0.10;;;;;;;-5.50;98.88;100499.34;5055775;28;20204;-51
2024/01/09 03:32:06;;;;;;;0.10;0.10;;;;;;;-5.35;100.00;100502.28;5055865;28;20197;-52
2024/01/09 03:34:53;;;;;;;0.10;0.10;;;;;;;-5.38;99.95;100509.97;5037902;28;20710;-53
2024/01/09 03:37:41;;;;;;;0.10;0.10;;;;;;;-5.60;100.00;100503.44;5052077;28;20196;-52
2024/01/09 03:40:28;;;;;;;0.10;0.10;;;;;;;-5.57;100.00;100492.34;5054371;28;20200;-52
2024/01/09 03:43:15;;;;;;;0.00;0.00;;;;;;;-5.34;100.00;100513.50;5055679;28;20204;-52
2024/01/09 03:46:02;;;;;;;0.10;0.10;;;;;;;-5.64;100.00;100511.09;5055726;28;20196;-52
2024/01/09 03:48:49;;;;;;;0.10;0.10;;;;;;;-5.20;100.00;100506.94;5055434;28;20250;-52
2024/01/09 03:51:36;;;;;;;0.10;0.10;;;;;;;-5.68;100.00;100514.47;5055450;28;20196;-52
2024/01/09 03:54:24;;;;;;;0.10;0.10;;;;;;;-5.68;100.00;100501.56;5054174;28;20290;-52
2024/01/09 03:57:11;;;;;;;0.10;0.10;;;;;;;-5.33;99.36;100503.19;5055317;28;20208;-53
2024/01/09 03:59:58;;;;;;;0.10;0.10;;;;;;;-5.48;99.00;100495.13;5055402;28;20192;-52
2024/01/09 04:02:45;;;;;;;0.07;0.07;;;;;;;-5.54;99.04;100497.56;5055382;28;20274;-53
2024/01/09 04:05:32;;;;;;;0.10;0.10;;;;;;;-5.32;98.21;100493.72;5055304;28;20324;-52
2024/01/09 04:08:19;;;;;;;0.03;0.03;;;;;;;-5.14;95.49;100485.50;5053998;28;20254;-52
2024/01/09 04:11:07;;;;;;;0.00;0.00;;;;;;;-5.05;95.01;100483.09;5054822;28;20212;-52
2024/01/09 04:13:53;;;;;;;0.10;0.10;;;;;;;-5.63;96.19;100494.78;5055035;28;20271;-52
2024/01/09 04:16:45;;;;;;;0.10;0.10;;;;;;;-5.16;97.55;100492.34;5055061;28;20227;-52
2024/01/09 04:19:32;;;;;;;0.03;0.03;;;;;;;-5.28;96.33;100491.25;5055130;28;20192;-53
2024/01/09 04:22:19;;;;;;;0.10;0.10;;;;;;;-5.16;96.61;100490.63;5054570;28;20289;-52
2024/01/09 04:25:06;;;;;;;0.03;0.03;;;;;;;-5.32;94.55;100492.03;5053575;28;20195;-52
2024/01/09 04:27:55;;;;;;;0.10;0.10;;;;;;;-5.57;95.28;100495.78;5054783;28;20820;-52
2024/01/09 04:30:42;;;;;;;0.10;0.10;;;;;;;-5.60;95.63;100485.38;5054363;28;20310;-52
2024/01/09 04:33:28;;;;;;;0.10;0.10;;;;;;;-5.39;95.20;100492.75;5054878;28;20204;-52
2024/01/09 04:36:17;;;;;;;0.00;0.00;;;;;;;-5.21;94.18;100487.09;5054279;28;20666;-52
2024/01/09 04:39:04;;;;;;;0.10;0.10;;;;;;;-5.31;95.06;100486.00;5053231;28;20197;-53
2024/01/09 04:41:51;;;;;;;0.10;0.10;;;;;;;-5.45;95.63;100477.13;5054614;28;20316;-53
2024/01/09 04:44:39;;;;;;;0.07;0.07;;;;;;;-5.53;96.72;100479.53;5054591;28;20192;-52
2024/01/09 04:47:26;;;;;;;0.10;0.10;;;;;;;-5.77;98.49;100476.41;5054279;28;20694;-52
2024/01/09 04:50:13;;;;;;;0.10;0.10;;;;;;;-5.58;99.02;100470.81;5054202;28;20290;-52
2024/01/09 04:53:00;;;;;;;0.10;0.10;;;;;;;-5.68;100.00;100474.03;5054364;28;20192;-52
2024/01/09 04:55:46;;;;;;;0.00;0.00;;;;;;;-5.33;99.55;100474.78;5053836;28;20192;-52
2024/01/09 04:58:33;;;;;;;0.10;0.10;;;;;;;-5.64;99.39;100469.81;5054270;28;20264;-52
2024/01/09 05:01:22;;;;;;;0.10;0.10;;;;;;;-5.70;99.36;100467.09;5054151;28;20187;-52
2024/01/09 05:04:09;;;;;;;0.10;0.10;;;;;;;-5.69;100.00;100461.97;5053834;28;20192;-53
2024/01/09 05:06:56;;;;;;;0.10;0.10;;;;;;;-5.50;100.00;100458.06;5054060;28;20192;-52
2024/01/09 05:09:43;;;;;;;0.10;0.10;;;;;;;-5.35;99.67;100471.31;5052704;28;20212;-52
2024/01/09 05:12:30;;;;;;;0.10;0.10;;;;;;;-5.62;100.00;100465.53;5053844;28;20196;-52
2024/01/09 05:15:17;;;;;;;0.10;0.10;;;;;;;-5.70;100.00;100473.13;5053902;28;20200;-53
2024/01/09 05:18:05;;;;;;;0.10;0.10;;;;;;;-5.48;99.74;100474.47;5053858;28;20203;-52
2024/01/09 05:20:53;;;;;;;0.10;0.10;;;;;;;-5.66;100.00;100474.94;5053527;28;20232;-52
2024/01/09 05:23:39;;;;;;;0.00;0.00;;;;;;;-5.71;100.00;100473.09;5052449;28;20686;-52
2024/01/09 05:26:26;;;;;;;0.10;0.10;;;;;;;-5.43;100.00;100474.56;5051824;28;20192;-52
2024/01/09 05:29:13;;;;;;;0.03;0.03;;;;;;;-5.60;100.00;100475.06;5053507;28;20269;-52
2024/01/09 05:32:01;;;;;;;0.10;0.10;;;;;;;-5.70;100.00;100469.66;5048355;28;20702;-52
2024/01/09 05:34:49;;;;;;;0.10;0.10;;;;;;;-5.27;100.00;100472.34;5033745;28;20324;-52
2024/01/09 05:37:36;;;;;;;0.10;0.10;;;;;;;-5.61;100.00;100468.16;5046630;28;20195;-53
2024/01/09 05:40:23;;;;;;;0.10;0.10;;;;;;;-5.58;100.00;100469.97;5052133;28;20307;-52
2024/01/09 05:43:10;;;;;;;0.10;0.10;;;;;;;-5.32;100.00;100473.94;5053394;28;20189;-52
2024/01/09 05:45:57;;;;;;;0.00;0.00;;;;;;;-5.91;100.00;100480.41;5053209;28;20211;-52
2024/01/09 05:48:44;;;;;;;0.10;0.10;;;;;;;-5.68;100.00;100462.84;5053387;28;20204;-53
2024/01/09 05:51:33;;;;;;;0.10;0.10;;;;;;;-5.42;100.00;100456.53;5053053;28;20216;-52
2024/01/09 05:54:20;;;;;;;0.10;0.10;;;;;;;-5.40;100.00;100460.03;5051655;28;20387;-52
2024/01/09 05:57:07;;;;;;;0.10;0.10;;;;;;;-5.32;100.00;100458.47;5053189;28;20282;-52
2024/01/09 05:59:54;;;;;;;0.10;0.10;;;;;;;-5.71;100.00;100462.75;5053112;28;20199;-52
2024/01/09 06:02:41;;;;;;;0.10;0.10;;;;;;;-5.84;100.00;100465.06;5052937;28;20208;-52
2024/01/09 06:05:28;;;;;;;0.10;0.10;;;;;;;-5.54;100.00;100453.69;5052954;28;20211;-52
2024/01/09 06:08:16;;;;;;;0.10;0.10;;;;;;;-5.42;100.00;100459.09;5051676;28;20675;-52
2024/01/09 06:11:04;;;;;;;0.10;0.10;;;;;;;-5.84;100.00;100459.03;5052673;28;20415;-52
2024/01/09 06:13:50;;;;;;;0.00;0.00;;;;;;;-5.86;100.00;100459.00;5052991;28;20192;-52
2024/01/09 06:16:37;;;;;;;0.10;0.10;;;;;;;-5.58;100.00;100455.34;5052919;28;20247;-52
2024/01/09 06:19:24;;;;;;;0.10;0.10;;;;;;;-5.78;100.00;100457.47;5052715;28;20223;-53
2024/01/09 06:22:12;;;;;;;0.10;0.10;;;;;;;-5.86;100.00;100460.72;5052625;28;20228;-53
2024/01/09 06:25:00;;;;;;;0.10;0.10;;;;;;;-5.77;100.00;100458.34;5051506;28;20740;-52
2024/01/09 06:27:47;;;;;;;0.10;0.10;;;;;;;-5.95;100.00;100455.38;5052539;28;20270;-52
2024/01/09 06:30:34;;;;;;;0.10;0.10;;;;;;;-6.00;100.00;100452.69;5052681;28;20312;-52
2024/01/09 06:33:21;;;;;;;0.10;0.10;;;;;;;-5.78;100.00;100456.63;5052636;28;20200;-52
2024/01/09 06:36:08;;;;;;;0.10;0.10;;;;;;;-5.88;100.00;100449.50;5052612;28;20204;-52
2024/01/09 06:38:55;;;;;;;0.10;0.10;;;;;;;-5.91;100.00;100462.34;5054366;28;20689;-52
2024/01/09 06:41:44;;;;;;;0.10;0.10;;;;;;;-5.96;100.00;100462.25;5056908;28;20234;-52
2024/01/09 06:44:30;;;;;;;0.10;0.10;;;;;;;-6.01;100.00;100468.13;5056664;28;20195;-52
2024/01/09 06:47:17;;;;;;;0.10;0.10;;;;;;;-5.92;100.00;100460.59;5056630;28;20207;-52
2024/01/09 06:50:05;;;;;;;0.10;0.10;;;;;;;-5.94;100.00;100465.72;5056425;28;20195;-52
2024/01/09 06:53:06;;;;;;;0.00;0.00;;;;;;;-5.92;100.00;100468.34;5055411;28;20192;-52
2024/01/09 06:55:53;;;;;;;0.10;0.10;;;;;;;-5.93;100.00;100464.03;5056599;28;20268;-52
2024/01/09 06:58:41;;;;;;;0.10;0.10;;;;;;;-5.85;100.00;100463.34;5056512;28;20196;-52
2024/01/09 07:01:29;;;;;;;0.10;0.10;;;;;;;-5.83;100.00;100469.41;5056485;28;20284;-52
2024/01/09 07:04:16;;;;;;;0.10;0.10;;;;;;;-5.73;100.00;100459.28;5056428;28;20670;-53
2024/01/09 07:07:03;;;;;;;0.10;0.10;;;;;;;-5.59;100.00;100463.94;5056338;28;20196;-53
2024/01/09 07:09:50;;;;;;;0.00;0.00;;;;;;;-5.60;100.00;100464.72;5055097;28;20274;-53
2024/01/09 07:12:37;;;;;;;0.10;0.10;;;;;;;-5.89;100.00;100478.69;5056054;28;20287;-53
2024/01/09 07:15:25;;;;;;;0.10;0.10;;;;;;;-5.77;100.00;100474.69;5056219;28;20264;-53
2024/01/09 07:18:12;;;;;;;0.10;0.10;;;;;;;-5.64;100.00;100478.41;5056129;28;20204;-53
2024/01/09 07:20:59;;;;;;;0.10;0.10;;;;;;;-5.85;100.00;100483.09;5055911;28;20681;-53
2024/01/09 07:23:47;;;;;;;0.10;0.10;;;;;;;-5.78;100.00;100475.53;5054790;28;20270;-53
2024/01/09 07:26:39;;;;;;;0.10;0.10;;;;;;;-5.80;100.00;100481.47;5055872;28;20200;-53
2024/01/09 07:29:26;;;;;;;0.00;0.00;;;;;;;-5.87;100.00;100485.66;5055936;28;20200;-53
2024/01/09 07:32:14;;;;;;;0.10;0.10;;;;;;;-5.80;100.00;100496.97;5052045;28;20347;-53
2024/01/09 07:35:00;;;;;;;0.10;0.10;;;;;;;-5.88;100.00;100489.06;5055873;28;20192;-53
2024/01/09 07:37:47;;;;;;;0.10;0.10;;;;;;;-5.83;100.00;100502.06;5055825;28;20195;-53
2024/01/09 07:40:34;;;;;;;0.10;0.10;;;;;;;-5.90;100.00;100498.44;5055624;28;20200;-53
2024/01/09 07:43:21;;;;;;;0.10;0.10;;;;;;;-5.58;100.00;100491.47;5055740;28;20200;-53
2024/01/09 07:46:08;;;;;;;0.10;0.10;;;;;;;-5.52;100.00;100496.75;5055662;28;20992;-53
2024/01/09 07:48:56;;;;;;;0.00;0.00;;;;;;;-5.71;100.00;100494.59;5054949;28;20197;-53
2024/01/09 07:51:43;;;;;;;0.10;0.10;;;;;;;-5.59;100.00;100502.63;5055367;28;20258;-53
2024/01/09 07:54:30;;;;;;;0.10;0.10;;;;;;;-4.49;100.00;100479.03;5054237;28;20224;-53
2024/01/09 07:57:17;;;;;;;0.10;0.10;;;;;;;-5.13;100.00;100487.25;5055216;28;20211;-52
2024/01/09 08:00:09;;;;;;;0.10;0.10;;;;;;;-5.15;98.24;100496.69;5055423;28;20191;-53
2024/01/09 08:02:59;;;;;;;0.00;0.00;;;;;;;-5.04;96.63;100505.50;5055381;28;20216;-50
2024/01/09 08:05:47;;;;;;;0.10;0.10;;;;;;;-5.23;95.94;100502.53;5055137;28;20207;-51
2024/01/09 08:08:38;;;;;;;0.10;0.10;;;;;;;-5.14;95.24;100506.16;5053828;28;20311;-51
2024/01/09 08:11:25;;;;;;;0.10;0.10;;;;;;;-4.95;94.87;100513.44;5055060;28;20323;-52
2024/01/09 08:14:12;;;;;;;0.10;0.10;;;;;;;-5.06;93.61;100515.81;5054850;28;20263;-52
2024/01/09 08:16:59;;;;;;;0.10;0.10;;;;;;;-5.03;92.88;100515.88;5054987;28;20196;-53
2024/01/09 08:19:46;;;;;;;0.10;0.10;;;;;;;-4.94;91.91;100525.53;5054989;28;20249;-52
2024/01/09 08:22:34;;;;;;;0.10;0.10;;;;;;;-4.78;91.12;100525.00;5054384;28;20228;-52
2024/01/09 08:25:21;;;;;;;0.10;0.10;;;;;;;-4.81;89.35;100524.09;5053556;28;20270;-53
2024/01/09 08:28:08;;;;;;;0.10;0.10;;;;;;;-4.65;88.21;100518.34;5054852;28;20277;-52
2024/01/09 08:30:55;;;;;;;0.10;0.10;;;;;;;-4.34;84.84;100527.56;5054933;28;20215;-53
2024/01/09 08:33:41;;;;;;;0.10;0.10;;;;;;;-4.54;82.76;100529.75;5054689;28;20219;-53
2024/01/09 08:36:29;;;;;;;0.10;0.10;;;;;;;-4.22;81.89;100532.94;5054709;28;20196;-53
2024/01/09 08:39:17;;;;;;;0.00;0.00;;;;;;;-3.93;81.56;100517.06;5053275;28;20200;-51
2024/01/09 08:42:04;;;;;;;0.10;0.10;;;;;;;-3.87;81.47;100514.53;5054112;28;20229;-51
2024/01/09 08:44:51;;;;;;;0.10;0.10;;;;;;;-3.79;77.46;100520.72;5054437;28;20200;-51
2024/01/09 08:47:38;;;;;;;0.10;0.10;;;;;;;-2.61;83.45;100499.84;5054251;28;20200;-51
2024/01/09 08:50:25;;;;;;;0.10;0.10;;;;;;;-3.15;74.67;100513.88;5054141;28;20208;-51
2024/01/09 08:53:12;;;;;;;0.10;0.10;;;;;;;-2.87;71.38;100515.09;5052735;28;20212;-52
2024/01/09 08:56:01;;;;;;;0.10;0.10;;;;;;;-3.02;68.91;100517.50;5054285;28;20266;-52
2024/01/09 08:58:47;;;;;;;0.10;0.10;;;;;;;-3.11;68.40;100517.38;5054140;28;20207;-52
2024/01/09 09:01:35;;;;;;;0.10;0.10;;;;;;;-3.22;69.19;100530.19;5053128;28;20235;-51
2024/01/09 09:04:22;;;;;;;0.10;0.10;;;;;;;-2.95;68.28;100522.78;5054226;28;20208;-52
2024/01/09 09:07:09;;;;;;;0.10;0.10;;;;;;;-2.71;66.43;100516.16;5054044;28;20188;-52
2024/01/09 09:09:56;;;;;;;0.10;0.10;;;;;;;-2.67;65.21;100531.78;5052633;28;20243;-51
2024/01/09 09:12:45;;;;;;;0.10;0.10;;;;;;;-2.55;64.07;100527.56;5054010;28;20223;-52
2024/01/09 09:15:31;;;;;;;0.10;0.10;;;;;;;-2.36;63.17;100530.38;5053931;28;20196;-52
2024/01/09 09:18:18;;;;;;;0.03;0.03;;;;;;;-2.57;63.97;100519.78;5053843;28;20200;-51
2024/01/09 09:21:05;;;;;;;0.00;0.00;;;;;;;-1.80;62.43;100518.78;5053640;28;20313;-52
2024/01/09 09:23:53;;;;;;;0.10;0.10;;;;;;;-0.93;58.39;100521.91;5052446;28;20755;-52
2024/01/09 09:26:39;;;;;;;0.10;0.10;;;;;;;1.02;55.06;100508.97;5053668;28;20195;-51
2024/01/09 09:29:28;;;;;;;0.10;0.10;;;;;;;0.32;51.17;100522.16;5050203;28;20196;-52
2024/01/09 09:32:23;;;;;;;0.10;0.10;;;;;;;0.67;50.49;100518.63;5053489;28;20204;-52
2024/01/09 09:35:10;;;;;;;0.10;0.10;;;;;;;2.62;46.64;100501.81;5053464;28;20271;-52
2024/01/09 09:37:57;;;;;;;0.10;0.10;;;;;;;3.17;43.92;100507.28;5052810;28;20739;-54
2024/01/09 09:40:44;;;;;;;0.10;0.10;;;;;;;2.95;44.02;100495.34;5053533;28;20192;-54
2024/01/09 09:43:34;;;;;;;0.10;0.10;;;;;;;5.24;41.38;100472.41;5053435;28;20192;-54
2024/01/09 09:46:26;;;;;;;0.10;0.10;;;;;;;5.40;38.46;100469.44;5053393;28;20216;-54
2024/01/09 09:49:14;;;;;;;0.10;0.10;;;;;;;5.28;38.79;100467.03;5033258;28;20296;-54
2024/01/09 09:52:01;;;;;;;0.10;0.10;;;;;;;6.09;38.03;100457.34;5033105;28;20643;-54
2024/01/09 09:54:50;;;;;;;0.10;0.10;;;;;;;4.36;38.10;100454.00;5031800;28;20243;-54
2024/01/09 09:57:37;;;;;;;0.10;0.10;;;;;;;5.38;37.95;100446.69;5042538;28;20238;-54
2024/01/09 10:00:24;;;;;;;0.07;0.07;;;;;;;6.07;36.92;100439.84;5052919;28;20192;-54
2024/01/09 10:03:16;;;;;;;0.10;0.10;;;;;;;6.30;35.79;100430.47;5053071;28;20235;-54
2024/01/09 10:06:05;;;;;;;0.10;0.10;;;;;;;7.58;35.71;100419.78;5053195;28;20239;-54
2024/01/09 10:08:54;;;;;;;0.10;0.10;;;;;;;6.88;35.16;100421.00;5051463;28;20204;-54
2024/01/09 10:11:41;;;;;;;0.10;0.10;;;;;;;7.95;34.45;100408.91;5052989;28;20263;-54
2024/01/09 10:14:28;;;;;;;0.10;0.10;;;;;;;8.40;32.63;100400.38;5052698;28;20195;-54
2024/01/09 10:17:16;;;;;;;0.10;0.10;;;;;;;8.15;32.72;100390.63;5052671;28;20196;-54
2024/01/09 10:20:05;;;;;;;0.10;0.10;;;;;;;7.60;33.26;100388.94;5052801;28;20192;-54
2024/01/09 10:22:52;;;;;;;0.10;0.10;;;;;;;9.19;32.40;100386.88;5052835;28;20233;-54
2024/01/09 10:25:40;;;;;;;0.10;0.10;;;;;;;9.34;30.84;100380.13;5052429;28;20659;-54
2024/01/09 10:28:27;;;;;;;0.10;0.10;;;;;;;9.29;30.93;100374.16;5052589;28;20254;-55
2024/01/09 10:31:15;;;;;;;0.10;0.10;;;;;;;8.11;32.42;100369.69;5052756;28;20208;-55
2024/01/09 10:34:02;;;;;;;0.10;0.10;;;;;;;8.78;30.94;100369.91;5052359;28;20212;-54
2024/01/09 10:36:53;;;;;;;0.10;0.10;;;;;;;9.58;30.63;100357.13;5052581;28;20207;-54
2024/01/09 10:39:40;;;;;;;0.10;0.10;;;;;;;7.43;31.74;100364.00;5051342;28;20247;-55
2024/01/09 10:42:27;;;;;;;0.10;0.10;;;;;;;8.70;31.61;100364.09;5052392;28;20681;-55
2024/01/09 10:45:15;;;;;;;0.10;0.10;;;;;;;8.78;30.54;100362.00;5033328;28;20706;-54
2024/01/09 10:48:06;;;;;;;0.10;0.10;;;;;;;8.03;29.89;100362.03;5084585;28;20195;-55
2024/01/09 10:50:55;;;;;;;0.10;0.10;;;;;;;7.84;30.55;100353.88;5086296;28;20268;-54
2024/01/09 10:53:46;;;;;;;0.00;0.00;;;;;;;9.18;30.22;100350.78;5090692;28;20261;-54
2024/01/09 10:56:35;;;;;;;0.10;0.10;;;;;;;9.14;30.04;100347.38;5091837;28;20245;-54
2024/01/09 10:59:23;;;;;;;0.10;0.10;;;;;;;9.79;28.96;100347.44;5051271;28;20270;-54
2024/01/09 11:02:15;;;;;;;0.10;0.10;;;;;;;9.55;28.44;100349.31;5051641;28;20196;-54
2024/01/09 11:05:02;;;;;;;0.10;0.10;;;;;;;9.93;28.70;100338.00;5050963;28;20188;-54
2024/01/09 11:07:53;;;;;;;0.10;0.10;;;;;;;10.87;28.11;100340.91;5071516;28;20198;-54
2024/01/09 11:10:43;;;;;;;0.00;0.00;;;;;;;10.31;29.23;100339.03;5091685;28;20306;-54
2024/01/09 11:13:32;;;;;;;0.00;0.00;;;;;;;9.98;28.67;100325.44;5090714;28;20227;-54
2024/01/09 11:16:20;;;;;;;0.00;0.00;;;;;;;10.29;28.03;100314.41;5091722;28;20191;-53
2024/01/09 11:19:10;;;;;;;0.10;0.10;;;;;;;10.48;28.44;100309.13;5058841;28;20202;-53
2024/01/09 11:21:56;;;;;;;0.10;0.10;;;;;;;9.50;28.38;100315.13;5048771;28;20231;-53
2024/01/09 11:24:46;;;;;;;0.10;0.10;;;;;;;9.60;27.88;100313.81;5069733;28;20195;-54
2024/01/09 11:27:42;;;;;;;0.10;0.10;;;;;;;10.81;27.84;100313.84;5075999;28;20334;-53
2024/01/09 11:30:31;;;;;;;0.10;0.10;;;;;;;9.91;28.37;100316.03;5061425;28;20697;-54
2024/01/09 11:33:32;;;;;;;0.10;0.10;;;;;;;10.57;27.53;100313.16;5071054;28;20572;-54
2024/01/09 11:36:23;;;;;;;0.10;0.10;;;;;;;10.74;27.37;100302.66;5073899;28;20211;-54
2024/01/09 11:39:10;;;;;;;0.10;0.10;;;;;;;11.01;26.97;100295.22;5079899;28;20229;-54
2024/01/09 11:41:58;;;;;;;0.10;0.10;;;;;;;11.29;26.22;100300.06;5074410;28;20206;-54
2024/01/09 11:44:49;;;;;;;0.00;0.00;;;;;;;11.16;26.40;100293.59;5074530;28;20191;-54
2024/01/09 11:47:38;;;;;;;0.00;0.00;;;;;;;12.40;25.36;100277.56;5082097;28;20203;-53
2024/01/09 11:50:25;;;;;;;0.10;0.10;;;;;;;14.45;24.21;100277.25;5095366;28;20688;-54
2024/01/09 11:53:15;;;;;;;0.10;0.10;;;;;;;14.31;23.26;100269.25;5045073;28;20230;-55
2024/01/09 11:56:03;;;;;;;0.00;0.00;;;;;;;15.60;23.80;100256.50;5059344;28;20223;-54
2024/01/09 11:58:51;;;;;;;0.10;0.10;;;;;;;12.56;23.72;100257.22;5047449;28;20226;-55
2024/01/09 12:01:40;;;;;;;0.07;0.07;;;;;;;13.58;24.64;100261.19;5048790;28;20242;-55
2024/01/09 12:04:30;;;;;;;0.10;0.10;;;;;;;13.14;24.07;100263.75;5059113;28;20195;-55
2024/01/09 12:07:17;;;;;;;0.10;0.10;;;;;;;14.80;23.87;100253.72;5037840;28;20222;-54
2024/01/09 12:10:08;;;;;;;0.00;0.00;;;;;;;15.57;22.90;100248.72;5037317;28;20228;-55
2024/01/09 12:13:11;;;;;;;0.10;0.10;;;;;;;14.04;23.09;100245.13;5055069;28;20193;-55
2024/01/09 12:15:58;;;;;;;0.10;0.10;;;;;;;12.82;23.73;100239.81;5054955;28;20262;-54
2024/01/09 12:18:56;;;;;;;0.10;0.10;;;;;;;13.26;23.28;100233.81;5054933;28;20276;-55
2024/01/09 12:21:43;;;;;;;0.00;0.00;;;;;;;15.81;21.68;100238.19;5054727;28;20267;-55
2024/01/09 12:24:30;;;;;;;0.10;0.10;;;;;;;15.88;22.26;100221.66;5053416;28;20201;-55
2024/01/09 12:27:19;;;;;;;0.00;0.00;;;;;;;15.08;22.88;100219.94;5054765;28;20200;-55
2024/01/09 12:30:11;;;;;;;0.10;0.10;;;;;;;16.12;21.45;100207.56;5054757;28;20193;-55
2024/01/09 12:32:58;;;;;;;0.10;0.10;;;;;;;16.12;21.73;100194.19;5054784;28;20192;-55
2024/01/09 12:35:48;;;;;;;0.10;0.10;;;;;;;17.68;20.69;100191.59;5054452;28;20663;-55
2024/01/09 12:38:35;;;;;;;0.00;0.00;;;;;;;17.34;20.30;100185.25;5053372;28;20276;-55
2024/01/09 12:41:23;;;;;;;0.00;0.00;;;;;;;17.67;20.62;100179.16;5054310;28;20204;-55
2024/01/09 12:44:12;;;;;;;0.10;0.10;;;;;;;14.90;21.45;100181.97;5054504;28;20199;-55
2024/01/09 12:46:59;;;;;;;0.00;0.00;;;;;;;17.49;21.00;100175.22;5054427;28;20196;-55
2024/01/09 12:49:46;;;;;;;0.00;0.00;;;;;;;17.32;20.97;100177.34;5054494;28;20199;-55
2024/01/09 12:52:52;;;;;;;0.00;0.00;;;;;;;16.45;21.99;100167.72;5054299;28;20207;-55
2024/01/09 12:55:39;;;;;;;0.10;0.10;;;;;;;18.65;20.77;100164.25;5053831;28;20236;-56
2024/01/09 12:58:26;;;;;;;0.10;0.10;;;;;;;17.86;20.99;100159.88;5054328;28;20204;-55